Time;durP1;ratioP1;P1;durP2;ratioP2;P2;SDS_P1;SDS_P2;PMS_P1;PMS_P2;Temp;Humidity;BMP_temperature;BMP_pressure;BME280_temperature;BME280_humidity;BME280_pressure;Samples;Min_cycle;Max_cycle;Signal;HPM_P1;HPM_P2
2021/04/08 00:00:10;;;;;;;16.03;5.03;;;1.30;99.90;;;;;;3586923;39;20319;-75
2021/04/08 00:02:41;;;;;;;12.93;4.03;;;1.30;99.90;;;;;;3577853;39;20225;-75
2021/04/08 00:05:07;;;;;;;7.00;4.87;;;1.30;99.90;;;;;;3579208;39;20416;-74
2021/04/08 00:07:32;;;;;;;5.50;3.63;;;1.30;99.90;;;;;;3577994;39;20669;-75
2021/04/08 00:09:58;;;;;;;6.73;4.07;;;1.40;99.90;;;;;;3578694;39;20416;-75
2021/04/08 00:12:24;;;;;;;5.10;4.10;;;1.40;99.90;;;;;;3587232;39;20236;-75
2021/04/08 00:14:49;;;;;;;3.43;3.17;;;1.40;99.90;;;;;;3579179;39;20248;-75
2021/04/08 00:17:15;;;;;;;12.03;4.97;;;1.30;99.90;;;;;;3586639;39;20237;-75
2021/04/08 00:19:41;;;;;;;12.50;5.90;;;1.40;99.90;;;;;;3586531;39;20327;-75
2021/04/08 00:22:06;;;;;;;7.77;5.67;;;1.40;99.90;;;;;;3588599;39;20395;-75
2021/04/08 00:24:32;;;;;;;9.23;4.60;;;1.40;99.90;;;;;;3587695;39;20326;-75
2021/04/08 00:26:57;;;;;;;11.53;3.97;;;1.30;99.90;;;;;;3577044;39;20579;-75
2021/04/08 00:29:23;;;;;;;9.57;6.07;;;1.40;99.90;;;;;;3577108;39;20613;-75
2021/04/08 00:31:49;;;;;;;9.10;4.63;;;1.30;99.90;;;;;;3577221;39;20233;-75
2021/04/08 00:34:14;;;;;;;12.03;3.90;;;1.20;99.90;;;;;;3579296;39;20712;-75
2021/04/08 00:36:40;;;;;;;9.87;5.30;;;1.20;99.90;;;;;;3578100;39;20586;-75
2021/04/08 00:39:06;;;;;;;14.87;5.67;;;1.20;99.90;;;;;;3570550;39;20693;-75
2021/04/08 00:41:33;;;;;;;10.87;5.00;;;1.20;99.90;;;;;;3579184;39;20253;-75
2021/04/08 00:43:59;;;;;;;11.30;4.90;;;1.20;99.90;;;;;;3578747;39;20229;-75
2021/04/08 00:46:25;;;;;;;12.83;7.30;;;1.20;99.90;;;;;;3587442;39;20390;-75
2021/04/08 00:48:51;;;;;;;10.80;4.40;;;1.20;99.90;;;;;;3587571;39;20386;-75
2021/04/08 00:51:17;;;;;;;16.03;5.30;;;1.20;99.90;;;;;;3578187;39;20410;-75
2021/04/08 00:53:43;;;;;;;10.80;5.67;;;1.10;99.90;;;;;;3581998;39;20217;-75
2021/04/08 00:56:09;;;;;;;9.03;3.97;;;1.10;99.90;;;;;;3577912;39;20424;-75
2021/04/08 00:58:36;;;;;;;11.63;5.23;;;1.10;99.90;;;;;;3587130;39;20233;-75
2021/04/08 01:01:02;;;;;;;11.80;6.37;;;1.10;99.90;;;;;;3587090;39;20406;-76
2021/04/08 01:03:28;;;;;;;5.90;4.40;;;1.10;99.90;;;;;;3574268;39;20420;-76
2021/04/08 01:05:53;;;;;;;7.07;4.50;;;1.10;99.90;;;;;;3649134;22;20288;-76
2021/04/08 01:08:21;;;;;;;10.17;5.43;;;1.10;99.90;;;;;;3582585;39;20257;-76
2021/04/08 01:10:47;;;;;;;14.00;6.10;;;1.20;99.90;;;;;;3587673;39;20391;-77
2021/04/08 01:13:16;;;;;;;8.77;5.27;;;1.10;99.90;;;;;;3595622;39;20391;-77
2021/04/08 01:15:43;;;;;;;7.73;4.93;;;1.10;99.90;;;;;;3597894;39;20390;-77
2021/04/08 01:18:47;;;;;;;7.30;5.20;;;1.20;99.90;;;;;;3597904;39;20399;-77
2021/04/08 01:21:28;;;;;;;13.67;6.77;;;1.20;99.90;;;;;;3597712;39;20375;-77
2021/04/08 01:24:37;;;;;;;13.80;6.40;;;1.10;99.90;;;;;;3597532;39;20421;-77
2021/04/08 01:27:37;;;;;;;9.03;5.87;;;1.20;99.90;;;;;;3590763;39;20363;-77
2021/04/08 01:30:16;;;;;;;31.23;6.17;;;1.10;99.90;;;;;;3589090;39;20423;-77
2021/04/08 01:32:51;;;;;;;14.10;6.67;;;1.10;99.90;;;;;;3598067;39;20557;-77
2021/04/08 01:35:24;;;;;;;5.70;4.90;;;1.10;99.90;;;;;;3597231;39;20427;-77
2021/04/08 01:38:12;;;;;;;12.17;5.40;;;1.10;99.90;;;;;;3595608;39;20373;-77
2021/04/08 01:40:39;;;;;;;13.10;6.57;;;1.10;99.90;;;;;;3598461;39;20371;-77
2021/04/08 01:43:08;;;;;;;8.40;5.80;;;1.00;99.90;;;;;;3588962;39;20379;-77
2021/04/08 01:45:35;;;;;;;3.83;3.53;;;1.00;99.90;;;;;;3599071;39;20389;-77
2021/04/08 01:48:05;;;;;;;22.10;7.57;;;1.10;99.90;;;;;;3591836;39;21120;-77
2021/04/08 01:50:33;;;;;;;13.73;5.40;;;1.10;99.90;;;;;;3588625;39;20454;-77
2021/04/08 01:53:02;;;;;;;14.63;6.87;;;1.00;99.90;;;;;;3588841;39;20540;-77
2021/04/08 01:55:31;;;;;;;9.30;6.43;;;1.00;99.90;;;;;;3587533;39;20404;-77
2021/04/08 01:57:59;;;;;;;7.13;4.40;;;1.10;99.90;;;;;;3595871;39;20379;-76
2021/04/08 02:00:25;;;;;;;7.03;5.60;;;1.10;99.90;;;;;;3596399;39;20413;-77
2021/04/08 02:02:55;;;;;;;17.00;6.03;;;1.00;99.90;;;;;;3598433;39;20388;-77
2021/04/08 02:05:23;;;;;;;6.90;4.23;;;1.00;99.90;;;;;;3593591;39;20398;-77
2021/04/08 02:07:53;;;;;;;12.60;6.67;;;1.00;99.90;;;;;;3586512;40;20397;-77
2021/04/08 02:10:22;;;;;;;8.30;6.53;;;0.90;99.90;;;;;;3587434;39;20403;-77
2021/04/08 02:12:50;;;;;;;8.23;5.67;;;0.90;99.90;;;;;;3588210;40;20383;-77
2021/04/08 02:15:21;;;;;;;12.10;6.43;;;0.80;99.90;;;;;;3588647;39;20401;-76
2021/04/08 02:17:52;;;;;;;11.40;6.77;;;1.00;99.90;;;;;;3588019;40;20390;-76
2021/04/08 02:20:20;;;;;;;11.10;6.23;;;0.90;99.90;;;;;;3589376;39;20384;-76
2021/04/08 02:22:51;;;;;;;14.60;7.70;;;0.90;99.90;;;;;;3587308;40;20514;-76
2021/04/08 02:25:18;;;;;;;16.83;5.97;;;0.90;99.90;;;;;;3587784;39;20418;-76
2021/04/08 02:27:46;;;;;;;8.43;5.40;;;0.80;99.90;;;;;;3586349;40;20427;-77
2021/04/08 02:30:15;;;;;;;15.93;7.13;;;0.90;99.90;;;;;;3588350;40;20417;-77
2021/04/08 02:32:44;;;;;;;9.47;6.77;;;0.90;99.90;;;;;;3588137;40;20529;-76
2021/04/08 02:35:17;;;;;;;12.07;6.53;;;0.90;99.90;;;;;;3586720;40;20421;-76
2021/04/08 02:37:47;;;;;;;9.00;6.80;;;0.80;99.90;;;;;;3587051;39;20409;-77
2021/04/08 02:40:19;;;;;;;10.20;6.13;;;0.80;99.90;;;;;;3570334;40;20456;-76
2021/04/08 02:42:45;;;;;;;14.10;5.53;;;0.80;99.90;;;;;;3581247;40;20421;-77
2021/04/08 02:45:12;;;;;;;16.67;7.77;;;0.90;99.90;;;;;;3588545;40;20799;-77
2021/04/08 02:47:38;;;;;;;14.83;6.53;;;0.80;99.90;;;;;;3587888;40;20368;-77
2021/04/08 02:50:08;;;;;;;14.47;9.07;;;0.90;99.90;;;;;;3570014;40;20603;-76
2021/04/08 02:53:06;;;;;;;15.13;6.40;;;0.90;99.90;;;;;;3588739;39;20462;-76
2021/04/08 02:55:53;;;;;;;11.30;5.87;;;0.80;99.90;;;;;;3586895;39;20451;-76
2021/04/08 02:58:22;;;;;;;9.40;6.00;;;0.80;99.90;;;;;;3587966;40;21148;-77
2021/04/08 03:01:05;;;;;;;10.73;6.07;;;0.90;99.90;;;;;;3588327;39;20383;-77
2021/04/08 03:03:39;;;;;;;9.60;6.00;;;0.90;99.90;;;;;;3588609;40;20544;-76
2021/04/08 03:06:07;;;;;;;8.50;5.80;;;1.00;99.90;;;;;;3585489;40;20481;-76
2021/04/08 03:08:35;;;;;;;5.40;4.33;;;0.90;99.90;;;;;;3587036;40;20444;-76
2021/04/08 03:11:04;;;;;;;13.83;6.10;;;0.90;99.90;;;;;;3588400;40;20379;-77
2021/04/08 03:13:34;;;;;;;13.53;6.57;;;0.90;99.90;;;;;;3578546;40;20753;-77
2021/04/08 03:16:03;;;;;;;14.03;8.00;;;1.00;99.90;;;;;;3585940;40;20375;-77
2021/04/08 03:18:31;;;;;;;6.67;5.03;;;0.90;99.90;;;;;;3586259;40;20362;-77
2021/04/08 03:20:59;;;;;;;23.03;7.23;;;0.90;99.90;;;;;;3578001;40;20448;-76
2021/04/08 03:23:26;;;;;;;13.83;6.00;;;0.80;99.90;;;;;;3587410;40;21131;-76
2021/04/08 03:25:53;;;;;;;14.17;6.60;;;0.70;99.90;;;;;;3586831;39;20465;-76
2021/04/08 03:28:21;;;;;;;13.87;7.07;;;0.80;99.90;;;;;;3577821;40;20450;-76
2021/04/08 03:30:49;;;;;;;4.03;3.63;;;0.70;99.90;;;;;;3587642;39;20389;-76
2021/04/08 03:33:16;;;;;;;9.63;4.50;;;0.80;99.90;;;;;;3586606;40;20380;-76
2021/04/08 03:35:48;;;;;;;11.10;3.00;;;0.70;99.90;;;;;;3563557;40;20421;-77
2021/04/08 03:38:19;;;;;;;6.10;4.60;;;0.80;99.90;;;;;;3572393;40;20451;-76
2021/04/08 03:40:46;;;;;;;6.70;4.50;;;0.80;99.90;;;;;;3588596;40;20473;-77
2021/04/08 03:43:13;;;;;;;8.37;5.67;;;0.90;99.90;;;;;;3579938;40;20378;-76
2021/04/08 03:45:40;;;;;;;10.20;4.83;;;0.80;99.90;;;;;;3574000;39;20447;-76
2021/04/08 03:48:08;;;;;;;12.90;5.43;;;0.80;99.90;;;;;;3588156;40;20365;-76
2021/04/08 03:50:35;;;;;;;5.10;4.27;;;0.80;99.90;;;;;;3573107;40;20395;-76
2021/04/08 03:53:03;;;;;;;12.30;6.50;;;0.80;99.90;;;;;;3573930;40;20394;-76
2021/04/08 03:55:32;;;;;;;9.73;4.73;;;0.70;99.90;;;;;;3586250;39;20586;-76
2021/04/08 03:57:59;;;;;;;18.30;6.60;;;0.80;99.90;;;;;;3587789;39;20704;-76
2021/04/08 04:00:28;;;;;;;9.57;4.60;;;0.70;99.90;;;;;;3585934;39;20417;-77
2021/04/08 04:02:57;;;;;;;7.80;4.90;;;0.70;99.90;;;;;;3587915;40;20391;-77
2021/04/08 04:05:23;;;;;;;14.20;5.57;;;0.80;99.90;;;;;;3581057;40;20517;-76
2021/04/08 04:07:51;;;;;;;14.80;6.20;;;0.70;99.90;;;;;;3577412;40;20376;-76
2021/04/08 04:10:20;;;;;;;13.30;5.97;;;0.70;99.90;;;;;;3572798;40;20529;-76
2021/04/08 04:12:48;;;;;;;6.50;4.00;;;0.80;99.90;;;;;;3587074;40;20732;-76
2021/04/08 04:15:16;;;;;;;9.37;4.47;;;0.90;99.90;;;;;;3576972;40;20376;-76
2021/04/08 04:17:43;;;;;;;10.23;5.50;;;0.90;99.90;;;;;;3579435;40;20357;-76
2021/04/08 04:20:11;;;;;;;10.00;4.03;;;0.90;99.90;;;;;;3587872;40;20379;-76
2021/04/08 04:22:39;;;;;;;4.90;3.60;;;1.10;99.90;;;;;;3587594;40;20388;-77
2021/04/08 04:25:08;;;;;;;7.37;5.17;;;1.00;99.90;;;;;;3578133;40;21169;-77
2021/04/08 04:27:34;;;;;;;6.03;3.80;;;1.00;99.90;;;;;;3577796;40;20437;-77
2021/04/08 04:30:05;;;;;;;3.87;3.13;;;1.10;99.90;;;;;;3571320;40;20473;-76
2021/04/08 04:32:31;;;;;;;5.83;3.90;;;1.20;99.90;;;;;;3578970;40;20574;-77
2021/04/08 04:35:21;;;;;;;9.00;5.03;;;1.10;99.90;;;;;;3571893;40;21197;-76
2021/04/08 04:37:51;;;;;;;8.97;4.10;;;1.20;99.90;;;;;;3531922;40;20455;-76
2021/04/08 04:40:19;;;;;;;5.90;3.30;;;1.20;99.90;;;;;;3515870;40;20509;-76
2021/04/08 04:42:47;;;;;;;6.13;4.27;;;1.30;99.90;;;;;;3532108;40;20384;-76
2021/04/08 04:45:15;;;;;;;6.00;4.20;;;1.30;99.90;;;;;;3530754;40;20443;-76
2021/04/08 04:47:43;;;;;;;10.70;5.17;;;1.20;99.90;;;;;;3513036;40;20423;-77
2021/04/08 04:50:11;;;;;;;7.07;3.40;;;1.20;99.90;;;;;;3530132;40;20427;-77
2021/04/08 04:52:38;;;;;;;8.73;4.80;;;1.30;99.90;;;;;;3523625;40;20426;-76
2021/04/08 04:55:05;;;;;;;9.47;5.40;;;1.40;99.90;;;;;;3522690;40;20476;-77
2021/04/08 04:57:31;;;;;;;14.77;6.27;;;1.40;99.90;;;;;;3538817;40;20397;-77
2021/04/08 04:59:59;;;;;;;11.97;4.77;;;1.40;99.90;;;;;;3538430;40;21084;-76
2021/04/08 05:02:27;;;;;;;4.47;4.07;;;1.50;99.90;;;;;;3539425;40;20257;-76
2021/04/08 05:04:53;;;;;;;7.20;4.20;;;1.50;99.90;;;;;;3531443;40;20483;-76
2021/04/08 05:07:20;;;;;;;12.50;3.67;;;1.60;99.90;;;;;;3539982;40;20733;-77
2021/04/08 05:09:46;;;;;;;5.30;3.40;;;1.60;99.90;;;;;;3537807;40;20320;-76
2021/04/08 05:12:13;;;;;;;5.67;2.63;;;1.60;99.90;;;;;;3539448;40;20448;-76
2021/04/08 05:14:38;;;;;;;12.10;5.47;;;1.60;99.90;;;;;;3542584;40;20279;-77
2021/04/08 05:17:04;;;;;;;2.53;2.33;;;1.70;99.90;;;;;;3568187;39;20489;-76
2021/04/08 05:19:31;;;;;;;11.00;5.27;;;1.70;99.90;;;;;;3567788;39;20383;-76
2021/04/08 05:21:58;;;;;;;18.03;3.97;;;1.70;99.90;;;;;;3576058;40;20936;-76
2021/04/08 05:24:25;;;;;;;9.50;4.30;;;1.70;99.90;;;;;;3569070;40;20379;-76
2021/04/08 05:26:51;;;;;;;6.40;4.90;;;1.80;99.90;;;;;;3571092;40;20400;-76
2021/04/08 05:29:17;;;;;;;8.60;5.30;;;1.80;99.90;;;;;;3577128;40;20406;-76
2021/04/08 05:31:44;;;;;;;9.23;4.87;;;1.80;99.90;;;;;;3571071;40;20973;-76
2021/04/08 05:34:10;;;;;;;4.80;4.17;;;1.90;99.90;;;;;;3566812;40;20376;-76
2021/04/08 05:36:36;;;;;;;7.40;5.20;;;1.90;99.90;;;;;;3580055;40;20779;-76
2021/04/08 05:39:03;;;;;;;9.00;5.37;;;1.90;99.90;;;;;;3571160;40;20233;-76
2021/04/08 05:41:29;;;;;;;10.60;5.47;;;1.90;99.90;;;;;;3573756;40;21041;-76
2021/04/08 05:43:56;;;;;;;6.47;5.00;;;2.00;99.90;;;;;;3582172;40;20482;-76
2021/04/08 05:46:22;;;;;;;10.07;6.40;;;2.00;99.90;;;;;;3581319;39;20502;-76
2021/04/08 05:48:48;;;;;;;14.90;6.90;;;2.00;99.90;;;;;;3580768;40;20381;-76
2021/04/08 05:51:14;;;;;;;14.10;5.83;;;2.10;99.90;;;;;;3573660;40;20630;-76
2021/04/08 05:53:39;;;;;;;10.50;5.87;;;2.10;99.90;;;;;;3571428;40;20280;-77
2021/04/08 05:56:05;;;;;;;14.40;7.07;;;2.10;99.90;;;;;;3580265;40;20407;-76
2021/04/08 05:58:31;;;;;;;9.53;5.70;;;2.20;99.90;;;;;;3571912;40;20702;-77
2021/04/08 06:00:57;;;;;;;7.40;6.10;;;2.20;99.90;;;;;;3576583;40;20456;-77
2021/04/08 06:03:23;;;;;;;11.30;6.00;;;2.30;99.90;;;;;;3583306;40;20238;-77
2021/04/08 06:05:49;;;;;;;16.17;6.20;;;2.30;99.90;;;;;;3583185;39;20448;-76
2021/04/08 06:08:15;;;;;;;13.20;7.30;;;2.30;99.90;;;;;;3572353;40;20506;-76
2021/04/08 06:10:41;;;;;;;5.70;5.00;;;2.40;99.90;;;;;;3581909;39;20529;-76
2021/04/08 06:13:07;;;;;;;13.23;6.17;;;2.40;99.90;;;;;;3581195;40;20499;-76
2021/04/08 06:15:33;;;;;;;10.27;5.77;;;2.40;99.90;;;;;;3575804;40;20222;-76
2021/04/08 06:17:59;;;;;;;22.03;6.73;;;2.40;99.90;;;;;;3564953;40;20544;-77
2021/04/08 06:20:26;;;;;;;8.00;5.30;;;2.50;99.90;;;;;;3574960;40;20452;-77
2021/04/08 06:22:53;;;;;;;13.03;6.90;;;2.60;99.90;;;;;;3573279;40;20441;-77
2021/04/08 06:25:19;;;;;;;16.23;6.00;;;2.70;99.90;;;;;;3582986;40;20407;-77
2021/04/08 06:27:45;;;;;;;10.00;5.77;;;2.60;99.90;;;;;;3564859;39;20426;-77
2021/04/08 06:30:13;;;;;;;12.97;5.70;;;2.50;99.90;;;;;;3559118;40;20403;-77
2021/04/08 06:32:39;;;;;;;10.83;5.73;;;2.50;99.90;;;;;;3573544;40;20440;-77
2021/04/08 06:35:08;;;;;;;13.53;5.80;;;2.50;99.90;;;;;;3573145;40;20420;-77
2021/04/08 06:37:34;;;;;;;15.03;6.27;;;2.60;99.90;;;;;;3567015;40;20394;-77
2021/04/08 06:40:00;;;;;;;13.63;6.13;;;2.60;99.90;;;;;;3575557;40;20871;-77
2021/04/08 06:42:27;;;;;;;8.73;5.17;;;2.60;99.90;;;;;;3585257;40;20415;-77
2021/04/08 06:44:56;;;;;;;13.93;7.20;;;2.70;99.90;;;;;;3575048;40;20367;-77
2021/04/08 06:47:47;;;;;;;11.00;7.67;;;2.70;99.90;;;;;;3574103;39;20943;-77
2021/04/08 06:50:14;;;;;;;12.87;8.53;;;2.90;99.90;;;;;;3569855;40;20404;-77
2021/04/08 06:52:41;;;;;;;11.10;7.67;;;2.90;99.90;;;;;;3568259;40;20549;-77
2021/04/08 06:55:08;;;;;;;12.50;9.00;;;2.90;99.90;;;;;;3583718;40;20403;-77
2021/04/08 06:57:34;;;;;;;9.73;7.30;;;3.00;99.90;;;;;;3577111;40;20435;-77
2021/04/08 07:00:02;;;;;;;17.07;10.30;;;3.00;99.90;;;;;;3568365;40;20395;-77
2021/04/08 07:02:28;;;;;;;13.40;9.83;;;3.20;99.90;;;;;;3568217;40;20464;-77
2021/04/08 07:04:55;;;;;;;20.70;10.60;;;3.40;99.90;;;;;;3565210;40;20445;-77
2021/04/08 07:07:21;;;;;;;16.67;10.30;;;3.40;99.90;;;;;;3549884;40;20385;-77
2021/04/08 07:09:49;;;;;;;16.83;9.67;;;3.30;99.90;;;;;;3564640;40;20396;-77
2021/04/08 07:12:15;;;;;;;15.20;11.37;;;3.50;99.90;;;;;;3557668;40;20250;-77
2021/04/08 07:14:41;;;;;;;13.77;9.30;;;3.70;99.90;;;;;;3566435;40;21392;-77
2021/04/08 07:17:11;;;;;;;16.50;11.37;;;3.70;99.90;;;;;;3556783;40;20396;-77
2021/04/08 07:19:38;;;;;;;14.53;10.00;;;3.60;99.90;;;;;;3572495;40;20414;-77
2021/04/08 07:22:04;;;;;;;13.83;10.10;;;3.60;99.90;;;;;;3565529;40;20459;-77
2021/04/08 07:24:52;;;;;;;9.53;7.90;;;3.60;99.90;;;;;;3571281;40;20742;-77
2021/04/08 07:27:22;;;;;;;20.37;11.67;;;3.60;99.90;;;;;;3560328;40;20397;-77
2021/04/08 07:29:58;;;;;;;13.43;9.93;;;3.80;99.90;;;;;;3567681;40;20412;-77
2021/04/08 07:32:31;;;;;;;15.50;9.90;;;3.70;99.90;;;;;;3575579;40;20420;-77
2021/04/08 07:35:05;;;;;;;8.40;6.40;;;3.70;99.90;;;;;;3565307;40;20373;-77
2021/04/08 07:37:34;;;;;;;9.37;6.83;;;3.80;99.90;;;;;;3576254;40;20430;-77
2021/04/08 07:40:24;;;;;;;14.43;10.13;;;3.90;99.90;;;;;;3559112;40;21063;-77
2021/04/08 07:42:50;;;;;;;12.67;10.30;;;4.30;99.90;;;;;;3575021;40;20641;-77
2021/04/08 07:45:27;;;;;;;9.60;7.10;;;4.10;99.90;;;;;;3563450;40;20664;-77
2021/04/08 07:48:02;;;;;;;10.20;8.53;;;4.10;99.90;;;;;;3556693;40;20391;-77
2021/04/08 07:50:29;;;;;;;9.00;8.07;;;4.60;99.90;;;;;;3573598;40;20396;-77
2021/04/08 07:52:55;;;;;;;12.93;9.10;;;4.70;99.90;;;;;;3563892;40;20438;-77
2021/04/08 07:55:30;;;;;;;6.07;4.60;;;4.90;99.90;;;;;;3568134;40;20753;-78
2021/04/08 07:57:58;;;;;;;9.53;7.30;;;4.90;99.90;;;;;;3563197;40;20421;-77
2021/04/08 08:00:37;;;;;;;8.33;7.43;;;4.90;99.90;;;;;;3569722;40;20414;-77
2021/04/08 08:03:05;;;;;;;11.40;6.83;;;4.70;99.90;;;;;;3557428;40;20412;-77
2021/04/08 08:05:37;;;;;;;12.33;9.53;;;4.90;11.30;;;;;;3562232;40;20501;-77
2021/04/08 08:08:13;;;;;;;6.23;5.63;;;5.70;1.00;;;;;;3578011;40;20379;-77
2021/04/08 08:10:41;;;;;;;6.23;5.63;;;5.90;1.00;;;;;;3572550;40;20451;-77
2021/04/08 08:13:24;;;;;;;20.97;7.67;;;5.70;1.00;;;;;;3565846;39;20725;-77
2021/04/08 08:15:50;;;;;;;8.90;6.60;;;5.70;1.00;;;;;;3574340;39;20386;-77
2021/04/08 08:18:26;;;;;;;7.80;5.40;;;5.80;1.00;;;;;;3583134;39;20383;-77
2021/04/08 08:21:04;;;;;;;5.30;4.80;;;5.50;1.00;;;;;;3584001;39;20456;-77
2021/04/08 08:23:46;;;;;;;7.63;5.40;;;5.30;99.90;;;;;;3569174;40;20723;-77
2021/04/08 08:26:32;;;;;;;12.20;6.70;;;5.80;99.90;;;;;;3573543;40;20367;-77
2021/04/08 08:29:13;;;;;;;11.00;6.87;;;6.10;99.90;;;;;;3564398;39;21184;-77
2021/04/08 08:31:51;;;;;;;6.73;5.30;;;5.70;1.00;;;;;;3582897;40;20402;-77
2021/04/08 08:34:21;;;;;;;15.50;6.30;;;5.70;1.00;;;;;;3572310;40;20396;-78
2021/04/08 08:36:56;;;;;;;8.67;7.83;;;6.00;99.90;;;;;;3572696;40;21158;-78
2021/04/08 08:39:25;;;;;;;8.17;6.60;;;6.30;99.90;;;;;;3581488;39;21559;-78
2021/04/08 08:41:51;;;;;;;15.90;7.60;;;6.00;99.90;;;;;;3562765;39;20384;-78
2021/04/08 08:44:18;;;;;;;12.97;6.73;;;6.70;99.90;;;;;;3565490;39;20526;-78
2021/04/08 08:46:44;;;;;;;20.97;5.90;;;6.10;1.00;;;;;;3573224;40;20399;-78
2021/04/08 08:49:12;;;;;;;6.20;5.40;;;6.30;99.90;;;;;;3577378;39;20476;-78
2021/04/08 08:51:38;;;;;;;9.80;6.23;;;5.90;1.00;;;;;;3573400;39;20250;-78
2021/04/08 08:54:05;;;;;;;6.40;5.33;;;6.00;1.00;;;;;;3582213;40;20465;-78
2021/04/08 08:56:33;;;;;;;6.63;5.03;;;6.00;99.90;;;;;;3573514;40;20388;-78
2021/04/08 08:58:59;;;;;;;7.83;6.43;;;6.30;99.90;;;;;;3573625;40;20419;-78
2021/04/08 09:01:25;;;;;;;13.10;6.70;;;6.60;99.90;;;;;;3576457;40;20428;-78
2021/04/08 09:03:51;;;;;;;6.97;5.40;;;6.80;2.10;;;;;;3582622;39;20436;-78
2021/04/08 09:06:23;;;;;;;7.37;5.73;;;6.60;1.00;;;;;;3581894;40;20325;-78
2021/04/08 09:08:57;;;;;;;15.43;8.73;;;6.70;1.00;;;;;;3581462;39;20449;-78
2021/04/08 09:11:29;;;;;;;5.10;4.60;;;6.40;1.00;;;;;;3577073;40;21102;-77
2021/04/08 09:13:57;;;;;;;6.37;5.77;;;6.50;1.00;;;;;;3582019;40;20439;-77
2021/04/08 09:16:23;;;;;;;11.07;6.80;;;7.30;1.00;;;;;;3572378;40;20404;-78
2021/04/08 09:19:09;;;;;;;5.80;5.20;;;6.60;1.00;;;;;;3580241;39;20814;-78
2021/04/08 09:22:03;;;;;;;6.67;6.00;;;6.50;1.00;;;;;;3567748;39;20444;-78
2021/04/08 09:24:44;;;;;;;5.00;4.00;;;6.90;1.00;;;;;;3563727;39;20797;-78
2021/04/08 09:27:11;;;;;;;4.20;3.47;;;7.00;1.00;;;;;;3582021;39;20425;-77
2021/04/08 09:30:01;;;;;;;10.00;4.00;;;6.90;99.90;;;;;;3563792;40;20532;-78
2021/04/08 09:32:31;;;;;;;3.73;3.43;;;7.10;99.90;;;;;;3539310;40;20514;-78
2021/04/08 09:35:09;;;;;;;2.80;2.60;;;6.90;99.90;;;;;;3530489;40;20404;-78
2021/04/08 09:37:45;;;;;;;3.70;2.50;;;6.50;99.90;;;;;;3539149;40;20475;-78
2021/04/08 09:40:37;;;;;;;3.87;3.20;;;6.60;99.90;;;;;;3541808;40;20423;-78
2021/04/08 09:43:11;;;;;;;5.70;3.50;;;6.30;99.90;;;;;;3533034;40;20435;-78
2021/04/08 09:46:05;;;;;;;3.33;3.03;;;6.50;99.90;;;;;;3541258;40;20462;-78
2021/04/08 09:48:50;;;;;;;6.00;3.53;;;6.70;99.90;;;;;;3538833;40;20363;-78
2021/04/08 09:51:34;;;;;;;4.70;2.87;;;6.80;99.90;;;;;;3532950;40;20424;-77
2021/04/08 09:54:06;;;;;;;7.20;5.00;;;6.80;99.90;;;;;;3540499;40;20428;-77
2021/04/08 09:56:47;;;;;;;4.80;4.30;;;7.30;99.90;;;;;;3542530;40;20993;-76
2021/04/08 09:59:14;;;;;;;3.87;3.57;;;7.80;99.90;;;;;;3530133;40;20391;-76
2021/04/08 10:01:41;;;;;;;8.23;3.23;;;7.60;99.90;;;;;;3526974;40;20387;-77
2021/04/08 10:04:15;;;;;;;5.33;4.93;;;7.10;99.90;;;;;;3534707;40;20439;-77
2021/04/08 10:06:41;;;;;;;8.70;4.23;;;6.80;99.90;;;;;;3530878;40;20425;-77
2021/04/08 10:09:10;;;;;;;7.60;4.23;;;6.70;99.90;;;;;;3543216;40;20371;-77
2021/04/08 10:11:36;;;;;;;8.77;4.80;;;6.70;99.90;;;;;;3579644;40;20408;-77
2021/04/08 10:14:35;;;;;;;12.40;4.43;;;7.30;99.90;;;;;;3565988;40;20414;-77
2021/04/08 10:17:05;;;;;;;6.93;3.83;;;7.30;99.90;;;;;;3569384;39;20410;-77
2021/04/08 10:19:33;;;;;;;3.90;3.53;;;7.10;99.90;;;;;;3572304;40;20411;-77
2021/04/08 10:22:00;;;;;;;4.60;3.80;;;6.40;99.90;;;;;;3566807;40;20432;-77
2021/04/08 10:24:42;;;;;;;4.07;3.00;;;6.80;99.90;;;;;;3583679;40;20444;-77
2021/04/08 10:27:26;;;;;;;4.67;3.43;;;6.90;99.90;;;;;;3582154;40;20393;-77
2021/04/08 10:29:52;;;;;;;6.50;4.37;;;7.20;98.20;;;;;;3573514;40;20365;-77
2021/04/08 10:32:41;;;;;;;5.47;4.83;;;7.70;93.60;;;;;;3575781;40;20495;-78
2021/04/08 10:35:22;;;;;;;3.47;3.20;;;7.90;86.40;;;;;;3575856;40;20434;-78
2021/04/08 10:37:57;;;;;;;6.43;4.13;;;8.00;69.00;;;;;;3583686;39;20394;-77
2021/04/08 10:40:23;;;;;;;5.13;3.63;;;8.00;55.00;;;;;;3582413;39;20602;-77
2021/04/08 10:42:49;;;;;;;6.37;3.97;;;7.40;40.30;;;;;;3583593;39;20409;-77
2021/04/08 10:45:15;;;;;;;6.40;4.40;;;7.20;33.30;;;;;;3575097;40;20417;-78
2021/04/08 10:47:41;;;;;;;5.57;5.07;;;7.10;26.70;;;;;;3557489;40;20273;-78
2021/04/08 10:50:08;;;;;;;8.43;5.37;;;6.70;20.00;;;;;;3576270;39;20408;-78
2021/04/08 10:52:38;;;;;;;6.90;4.43;;;6.80;17.00;;;;;;3575158;40;20372;-78
2021/04/08 10:55:13;;;;;;;5.10;4.47;;;7.20;16.20;;;;;;3581960;39;20446;-78
2021/04/08 10:57:41;;;;;;;11.60;6.17;;;6.90;8.40;;;;;;3571754;40;20895;-78
2021/04/08 11:00:09;;;;;;;7.97;6.07;;;7.30;9.70;;;;;;3575632;39;20460;-78
2021/04/08 11:02:43;;;;;;;5.67;5.17;;;7.10;5.50;;;;;;3565327;40;20384;-78
2021/04/08 11:05:24;;;;;;;5.27;4.87;;;7.00;2.90;;;;;;3565105;39;20412;-78
2021/04/08 11:07:52;;;;;;;7.03;5.43;;;7.00;1.00;;;;;;3574252;40;20432;-78
2021/04/08 11:10:30;;;;;;;6.53;5.93;;;7.20;1.00;;;;;;3573373;40;20405;-78
2021/04/08 11:12:57;;;;;;;6.83;6.27;;;6.80;1.00;;;;;;3565823;40;20413;-77
2021/04/08 11:15:26;;;;;;;5.63;4.50;;;6.90;1.00;;;;;;3573370;40;20413;-77
2021/04/08 11:17:56;;;;;;;10.20;6.20;;;7.00;1.00;;;;;;3571370;40;20428;-78
2021/04/08 11:20:31;;;;;;;6.10;5.13;;;7.20;1.00;;;;;;3580671;40;21366;-77
2021/04/08 11:22:58;;;;;;;7.20;5.40;;;7.00;1.00;;;;;;3580874;39;20387;-77
2021/04/08 11:25:26;;;;;;;7.77;6.10;;;7.00;1.00;;;;;;3567882;40;20759;-77
2021/04/08 11:27:57;;;;;;;6.83;6.20;;;7.10;1.00;;;;;;3573142;40;20540;-77
2021/04/08 11:30:45;;;;;;;10.40;6.67;;;7.20;1.00;;;;;;3579635;40;20440;-77
2021/04/08 11:33:22;;;;;;;6.33;5.70;;;7.30;1.00;;;;;;3561959;40;20387;-78
2021/04/08 11:35:48;;;;;;;6.33;5.57;;;7.60;1.00;;;;;;3580730;39;20381;-79
2021/04/08 11:38:18;;;;;;;7.17;6.47;;;7.40;1.00;;;;;;3569831;40;21169;-78
2021/04/08 11:41:13;;;;;;;4.87;4.47;;;7.40;1.00;;;;;;3582445;39;20413;-78
2021/04/08 11:43:50;;;;;;;6.20;5.60;;;7.00;1.00;;;;;;3566725;40;20380;-78
2021/04/08 11:46:29;;;;;;;4.90;4.50;;;7.20;1.00;;;;;;3579995;40;20427;-79
2021/04/08 11:48:57;;;;;;;5.73;5.03;;;7.10;1.00;;;;;;3579508;39;20432;-77
2021/04/08 11:51:29;;;;;;;7.57;6.77;;;7.30;1.00;;;;;;3570776;40;20391;-77
2021/04/08 11:54:06;;;;;;;6.33;5.73;;;7.40;1.00;;;;;;3579552;39;20409;-77
2021/04/08 11:56:34;;;;;;;9.60;8.70;;;7.60;1.00;;;;;;3576349;40;20420;-77
2021/04/08 11:59:14;;;;;;;8.30;7.50;;;8.10;1.00;;;;;;3581816;40;20403;-78
2021/04/08 12:01:45;;;;;;;6.73;6.20;;;7.90;1.00;;;;;;3578338;40;20407;-78
2021/04/08 12:04:19;;;;;;;7.77;7.07;;;7.50;1.00;;;;;;3569093;39;20409;-78
2021/04/08 12:06:50;;;;;;;10.03;7.80;;;7.20;1.00;;;;;;3571041;40;21700;-78
2021/04/08 12:09:17;;;;;;;8.43;7.60;;;7.90;1.00;;;;;;3571339;39;22766;-78
2021/04/08 12:11:52;;;;;;;9.63;7.63;;;8.40;1.00;;;;;;3569640;39;20395;-78
2021/04/08 12:14:19;;;;;;;6.03;5.43;;;8.50;1.00;;;;;;3570607;40;20408;-78
2021/04/08 12:16:58;;;;;;;6.73;6.13;;;7.70;1.00;;;;;;3584179;39;20451;-78
2021/04/08 12:19:24;;;;;;;9.83;6.00;;;7.50;1.00;;;;;;3574883;40;20440;-78
2021/04/08 12:22:17;;;;;;;8.90;6.73;;;7.30;1.00;;;;;;3566875;40;20469;-78
2021/04/08 12:25:08;;;;;;;6.20;5.60;;;7.70;1.00;;;;;;3572782;39;20453;-78
2021/04/08 12:27:34;;;;;;;12.17;6.70;;;8.30;1.00;;;;;;3546399;40;20403;-78
2021/04/08 12:30:01;;;;;;;7.93;7.23;;;8.70;1.00;;;;;;3542422;40;20556;-78
2021/04/08 12:32:31;;;;;;;7.67;6.97;;;8.20;1.00;;;;;;3543879;40;20416;-78
2021/04/08 12:34:57;;;;;;;9.97;7.70;;;8.10;1.00;;;;;;3542125;40;20416;-78
2021/04/08 12:37:25;;;;;;;6.30;5.80;;;8.10;1.00;;;;;;3542824;40;20472;-78
2021/04/08 12:39:51;;;;;;;7.63;7.03;;;7.60;1.00;;;;;;3532915;40;20535;-78
2021/04/08 12:42:17;;;;;;;9.47;8.67;;;8.20;1.00;;;;;;3527857;40;20394;-78
2021/04/08 12:44:43;;;;;;;6.90;6.23;;;9.00;1.00;;;;;;3534500;40;20467;-78
2021/04/08 12:47:10;;;;;;;8.43;7.63;;;8.40;1.00;;;;;;3526826;40;20786;-78
2021/04/08 12:49:35;;;;;;;9.43;6.90;;;8.20;1.00;;;;;;3543404;40;20240;-78
2021/04/08 12:52:02;;;;;;;7.50;6.87;;;8.20;1.00;;;;;;3533479;40;20438;-78
2021/04/08 12:54:30;;;;;;;10.60;7.80;;;8.00;1.00;;;;;;3537777;40;20338;-78
2021/04/08 12:56:56;;;;;;;12.27;7.90;;;8.30;1.00;;;;;;3534218;40;21205;-78
2021/04/08 12:59:22;;;;;;;10.63;8.57;;;7.80;1.00;;;;;;3527142;40;20436;-78
2021/04/08 13:01:48;;;;;;;8.90;8.10;;;8.40;1.00;;;;;;3541500;40;20224;-78
2021/04/08 13:04:13;;;;;;;8.50;7.70;;;8.80;1.00;;;;;;3548617;40;20401;-78
2021/04/08 13:06:39;;;;;;;10.33;9.33;;;9.30;1.00;;;;;;3571745;40;20229;-79
2021/04/08 13:09:05;;;;;;;10.10;9.20;;;8.20;1.00;;;;;;3580422;39;20260;-78
2021/04/08 13:11:31;;;;;;;5.80;5.27;;;8.90;1.00;;;;;;3573790;40;20261;-78